Capital City Airport
KLAN : now visible

Airfield :











YOU CAN JOIN US ON...

 
LOGIN :

Register | Disclaimer

   EN    FR    IT 

 









Legend :    VFR   Marginal VFR   IFR   Intensive IFR   Very Intensive IFR
Visi :
Ceiling :
>= 8 km
>= 3000ft
5 to 8 km
1000 to 3000 ft
1500m to 5 km
500 to 1000 ft
800 to 1500m
200 to 500 ft
< 800m
< 200 ft
Symbols :   Thunderstorms  Fog  Heavy snow  Heavy precipitations  Wind > 20 kt






- Airport Elevation : 861 ft
- IATA code : LAN


KLAN - Capital City

CURRENT METAR :
  • 280653Z 31007KT 10SM OVC030 03/M01 A2979 RMK AO2 SLP095 T00331011

EXPIRED METARs :
  • 280644Z 31006KT 10SM OVC030 03/M01 A2979 RMK AO2 T00331006
  • 280553Z 32007KT 10SM OVC028 04/00 A2977 RMK AO2 SLP087 T00390000 10050 20033 51027
  • 280453Z 31004KT 10SM OVC027 04/01 A2975 RMK AO2 SLP081 T00390011 400560017

TAF KLAN
Valid from the 28 at 06:00 until the 29 at 06:00 UTC


280535Z 2806/2906 32004KT P6SM BKN020
FM281600 15003KT P6SM SCT020
FM290000 16008KT P6SM BKN020
KZOB FIR / North America



MET'MAP, your aeronautical weather chart ! - Copyright ORBIFLY December 2007 - Disclaimer

ORBIFLY MET'MAP TEAM :

Programming & Development : Alexandra Zaïnal
Original concept : Baudouin d'Aumeries
Technical & hardware support : Manuel Goepfert
Assistance : Marc-Olivier Méhu




SOURCES & CREDITS :

   NOAA       Earth
Advisory